Time;durP1;ratioP1;P1;durP2;ratioP2;P2;SDS_P1;SDS_P2;PMS_P1;PMS_P2;Temp;Humidity;BMP_temperature;BMP_pressure;BME280_temperature;BME280_humidity;BME280_pressure;Samples;Min_cycle;Max_cycle;Signal;HPM_P1;HPM_P2
2021/07/21 00:01:08;;;;;;;8.77;6.38;;;17.80;99.90;;;;;;4756483;30;20226;-96
2021/07/21 00:03:33;;;;;;;11.05;6.13;;;17.80;99.90;;;;;;4741768;30;20671;-95
2021/07/21 00:06:00;;;;;;;6.85;5.43;;;17.80;99.90;;;;;;4756685;30;20275;-96
2021/07/21 00:08:32;;;;;;;9.18;6.03;;;17.80;99.90;;;;;;4756863;30;20189;-96
2021/07/21 00:13:42;;;;;;;9.73;6.00;;;17.70;99.90;;;;;;4757862;30;20184;-95
2021/07/21 00:16:28;;;;;;;8.70;5.80;;;17.80;99.90;;;;;;4756029;30;20185;-96
2021/07/21 00:18:59;;;;;;;7.45;5.90;;;17.70;99.90;;;;;;4756053;30;20185;-96
2021/07/21 00:21:26;;;;;;;7.97;6.10;;;17.70;99.90;;;;;;4756232;30;20188;-96
2021/07/21 00:23:53;;;;;;;7.85;6.00;;;17.70;99.90;;;;;;4755654;30;20224;-96
2021/07/21 00:26:18;;;;;;;8.50;5.85;;;17.70;99.90;;;;;;4741285;30;20200;-96
2021/07/21 00:28:44;;;;;;;9.98;6.28;;;17.70;99.90;;;;;;4765720;30;20336;-96
2021/07/21 00:31:11;;;;;;;6.97;5.80;;;17.70;99.90;;;;;;4770840;30;20258;-96
2021/07/21 00:33:37;;;;;;;8.75;6.03;;;17.70;99.90;;;;;;4771277;30;20184;-96
2021/07/21 00:36:05;;;;;;;8.75;6.85;;;17.70;99.90;;;;;;4770957;30;20196;-96
2021/07/21 00:38:34;;;;;;;8.02;6.53;;;17.60;99.90;;;;;;4770876;30;20192;-96
2021/07/21 00:41:00;;;;;;;10.05;6.72;;;17.60;99.90;;;;;;4771398;30;20196;-96
2021/07/21 00:43:27;;;;;;;8.23;6.30;;;17.60;99.90;;;;;;4756176;30;20229;-96
2021/07/21 00:45:53;;;;;;;9.60;6.60;;;17.70;99.90;;;;;;4770724;30;20187;-96
2021/07/21 00:48:21;;;;;;;8.10;6.50;;;17.60;99.90;;;;;;4770992;30;20188;-96
2021/07/21 00:51:13;;;;;;;8.43;6.38;;;17.70;99.90;;;;;;4771310;30;20591;-95
2021/07/21 00:53:40;;;;;;;7.93;6.40;;;17.60;99.90;;;;;;4785460;29;20272;-96
2021/07/21 00:56:11;;;;;;;8.88;5.97;;;17.60;99.90;;;;;;4784360;29;20189;-96
2021/07/21 01:01:48;;;;;;;8.85;6.15;;;17.60;99.90;;;;;;4771755;30;20237;-96
2021/07/21 01:04:51;;;;;;;10.05;5.90;;;17.60;99.90;;;;;;4785559;29;20212;-96
2021/07/21 01:07:19;;;;;;;7.22;6.25;;;17.60;99.90;;;;;;4786372;30;20206;-96
2021/07/21 01:10:38;;;;;;;8.90;6.53;;;17.60;99.90;;;;;;4784710;29;20205;-96
2021/07/21 01:13:21;;;;;;;9.38;6.40;;;17.50;99.90;;;;;;4786681;29;20207;-96
2021/07/21 01:16:05;;;;;;;8.75;6.25;;;17.50;99.90;;;;;;4787320;29;20196;-96
2021/07/21 01:19:19;;;;;;;7.85;6.15;;;17.50;99.90;;;;;;4787110;29;20181;-96
2021/07/21 01:22:29;;;;;;;8.55;6.50;;;17.50;99.90;;;;;;4772037;30;20263;-96
2021/07/21 01:25:37;;;;;;;8.25;6.50;;;17.50;99.90;;;;;;4787264;29;20208;-95
2021/07/21 01:28:05;;;;;;;8.68;6.07;;;17.50;99.90;;;;;;4787343;30;20230;-95
2021/07/21 01:31:20;;;;;;;10.02;6.65;;;17.50;99.90;;;;;;4772067;30;20180;-96
2021/07/21 01:33:50;;;;;;;9.20;6.50;;;17.50;99.90;;;;;;4787413;29;20179;-95
2021/07/21 01:36:22;;;;;;;10.07;6.35;;;17.50;99.90;;;;;;4788136;29;20189;-94
2021/07/21 01:39:13;;;;;;;8.20;6.50;;;17.40;99.90;;;;;;4788085;29;20254;-95
2021/07/21 01:41:47;;;;;;;7.63;6.30;;;17.40;99.90;;;;;;4788849;29;20189;-95
2021/07/21 01:44:19;;;;;;;9.00;6.40;;;17.40;99.90;;;;;;4780270;30;20216;-96
2021/07/21 01:46:51;;;;;;;12.32;6.97;;;17.50;99.90;;;;;;4776045;30;20195;-96
2021/07/21 01:49:30;;;;;;;10.20;6.60;;;17.40;99.90;;;;;;4774993;30;20292;-96
2021/07/21 01:52:04;;;;;;;9.32;6.32;;;17.40;99.90;;;;;;4776265;30;20639;-96
2021/07/21 01:54:31;;;;;;;9.77;6.80;;;17.40;99.90;;;;;;4775999;30;20644;-96
2021/07/21 01:56:59;;;;;;;8.68;6.97;;;17.40;99.90;;;;;;4776551;30;20204;-96
2021/07/21 01:59:50;;;;;;;9.73;7.18;;;17.40;99.90;;;;;;4782861;30;20173;-96
2021/07/21 02:02:17;;;;;;;9.65;6.47;;;17.40;99.90;;;;;;4788837;29;20199;-96
2021/07/21 02:04:45;;;;;;;10.15;6.75;;;17.30;99.90;;;;;;4789097;29;20208;-96
2021/07/21 02:07:12;;;;;;;10.32;7.30;;;17.40;99.90;;;;;;4789607;29;20165;-96
2021/07/21 02:10:30;;;;;;;7.97;6.63;;;17.40;99.90;;;;;;4789102;29;20192;-95
2021/07/21 02:13:10;;;;;;;9.23;7.18;;;17.40;99.90;;;;;;4751980;29;20181;-96
2021/07/21 02:18:16;;;;;;;9.07;6.97;;;17.40;99.90;;;;;;5182165;24;20237;-96
2021/07/21 02:24:05;;;;;;;10.90;7.35;;;17.30;99.90;;;;;;4781137;30;20281;-96
2021/07/21 02:26:38;;;;;;;12.98;7.53;;;17.30;99.90;;;;;;4757913;30;20220;-96
2021/07/21 02:29:28;;;;;;;13.50;8.25;;;17.30;99.90;;;;;;4757649;30;20243;-96
2021/07/21 02:32:08;;;;;;;12.02;7.88;;;17.30;99.90;;;;;;4757834;30;20640;-95
2021/07/21 02:34:34;;;;;;;12.60;7.43;;;17.30;99.90;;;;;;4758521;30;20180;-96
2021/07/21 02:37:02;;;;;;;8.40;7.25;;;17.30;99.90;;;;;;4757300;30;20192;-96
2021/07/21 02:39:31;;;;;;;11.13;7.40;;;17.30;99.90;;;;;;4743271;30;20191;-96
2021/07/21 02:41:58;;;;;;;11.35;7.32;;;17.20;99.90;;;;;;4757069;30;20188;-96
2021/07/21 02:44:24;;;;;;;8.93;7.13;;;17.20;99.90;;;;;;4756915;30;20226;-96
2021/07/21 02:46:50;;;;;;;11.77;7.50;;;17.20;99.90;;;;;;4757207;30;20188;-96
2021/07/21 02:49:20;;;;;;;9.50;7.95;;;17.20;99.90;;;;;;4759477;30;20188;-95
2021/07/21 02:52:26;;;;;;;9.95;7.40;;;17.30;99.90;;;;;;4756661;30;20647;-96
2021/07/21 02:55:06;;;;;;;11.00;7.68;;;17.20;99.90;;;;;;4742921;30;20199;-96
2021/07/21 02:57:47;;;;;;;12.63;8.40;;;17.20;99.90;;;;;;4739452;30;20304;-96
2021/07/21 03:00:26;;;;;;;9.50;7.63;;;17.20;99.90;;;;;;4738953;30;20185;-95
2021/07/21 03:02:52;;;;;;;10.65;7.93;;;17.20;99.90;;;;;;4739058;30;20177;-96
2021/07/21 03:05:21;;;;;;;9.95;7.97;;;17.20;99.90;;;;;;4739303;30;20185;-96
2021/07/21 03:07:52;;;;;;;17.20;8.38;;;17.20;99.90;;;;;;4739050;30;20633;-96
2021/07/21 03:10:18;;;;;;;9.43;7.63;;;17.20;99.90;;;;;;4740251;30;20181;-96
2021/07/21 03:12:58;;;;;;;12.40;8.52;;;17.10;99.90;;;;;;4739329;30;20180;-96
2021/07/21 03:15:28;;;;;;;12.13;8.30;;;17.10;99.90;;;;;;4739288;30;20181;-96
2021/07/21 03:17:56;;;;;;;12.25;8.50;;;17.10;99.90;;;;;;4738959;30;20232;-95
2021/07/21 03:20:30;;;;;;;12.55;8.23;;;17.10;99.90;;;;;;4739510;30;20193;-95
2021/07/21 03:23:01;;;;;;;11.85;8.40;;;17.10;99.90;;;;;;4739506;30;20342;-96
2021/07/21 03:25:28;;;;;;;9.73;8.07;;;17.10;99.90;;;;;;4739100;30;20181;-96
2021/07/21 03:27:55;;;;;;;12.38;8.02;;;17.10;99.90;;;;;;4742598;30;20185;-94
2021/07/21 03:30:25;;;;;;;11.68;8.45;;;17.10;99.90;;;;;;4757371;30;20202;-95
2021/07/21 03:32:53;;;;;;;9.98;7.80;;;17.10;99.90;;;;;;4757168;30;20176;-95
2021/07/21 03:35:24;;;;;;;14.07;8.35;;;17.10;99.90;;;;;;4757916;30;20275;-96
2021/07/21 03:37:50;;;;;;;10.10;7.93;;;17.10;99.90;;;;;;4759224;30;20236;-96
2021/07/21 03:40:35;;;;;;;12.05;8.32;;;17.10;99.90;;;;;;4759285;30;20199;-96
2021/07/21 03:43:02;;;;;;;10.20;7.65;;;17.10;99.90;;;;;;4759014;30;20235;-96
2021/07/21 03:45:30;;;;;;;10.93;8.02;;;17.10;99.90;;;;;;4759061;30;20196;-96
2021/07/21 03:47:57;;;;;;;11.68;8.23;;;17.10;99.90;;;;;;4758988;30;20654;-96
2021/07/21 03:50:30;;;;;;;11.23;7.85;;;17.10;99.90;;;;;;4758967;30;20257;-95
2021/07/21 03:52:55;;;;;;;9.45;7.80;;;17.10;99.90;;;;;;4759007;30;20186;-95
2021/07/21 03:55:25;;;;;;;11.50;7.57;;;17.10;99.90;;;;;;4759529;30;20192;-95
2021/07/21 03:57:51;;;;;;;10.63;8.32;;;17.10;99.90;;;;;;4759175;30;20211;-95
2021/07/21 04:00:19;;;;;;;14.95;8.48;;;17.00;99.90;;;;;;4759372;30;20199;-94
2021/07/21 04:02:51;;;;;;;10.43;7.85;;;17.00;99.90;;;;;;4729919;30;20199;-95
2021/07/21 04:05:17;;;;;;;11.50;7.93;;;17.00;99.90;;;;;;4759140;30;20292;-95
2021/07/21 04:07:44;;;;;;;10.73;8.27;;;17.00;99.90;;;;;;4759151;30;20521;-94
2021/07/21 04:10:23;;;;;;;11.38;8.50;;;17.10;99.90;;;;;;4758687;30;20200;-95
2021/07/21 04:12:52;;;;;;;11.60;8.55;;;17.10;99.90;;;;;;4759216;30;20172;-95
2021/07/21 04:15:24;;;;;;;11.75;8.63;;;17.10;99.90;;;;;;4758980;30;20188;-96
2021/07/21 04:17:52;;;;;;;10.20;8.13;;;17.10;99.90;;;;;;4758958;30;20301;-96
2021/07/21 04:20:21;;;;;;;10.80;7.70;;;17.10;99.90;;;;;;4763290;30;20196;-96
2021/07/21 04:22:49;;;;;;;10.88;8.65;;;17.10;99.90;;;;;;4759933;30;20601;-96
2021/07/21 04:25:19;;;;;;;11.95;8.00;;;17.10;99.90;;;;;;4745105;30;20188;-96
2021/07/21 04:27:46;;;;;;;11.82;9.15;;;17.10;99.90;;;;;;4742410;30;20200;-96
2021/07/21 04:30:16;;;;;;;13.15;8.30;;;17.10;99.90;;;;;;4741849;30;20526;-96
2021/07/21 04:32:48;;;;;;;13.52;8.63;;;17.10;99.90;;;;;;4741293;30;20591;-96
2021/07/21 04:35:16;;;;;;;13.40;8.80;;;17.10;99.90;;;;;;4726889;30;20527;-96
2021/07/21 04:37:43;;;;;;;10.38;8.23;;;17.10;99.90;;;;;;4741214;30;20226;-96
2021/07/21 04:40:13;;;;;;;10.48;8.55;;;17.20;99.90;;;;;;4726325;30;20246;-95
2021/07/21 04:42:51;;;;;;;12.18;8.90;;;17.20;99.90;;;;;;4741079;30;20223;-95
2021/07/21 04:45:21;;;;;;;12.27;9.32;;;17.20;99.90;;;;;;4712303;30;20291;-95
2021/07/21 04:47:53;;;;;;;10.15;8.02;;;17.20;99.90;;;;;;4725983;30;20577;-96
2021/07/21 04:50:22;;;;;;;10.52;8.65;;;17.20;99.90;;;;;;4756847;30;20177;-95
2021/07/21 04:53:11;;;;;;;10.40;8.43;;;17.20;99.90;;;;;;4740510;30;20280;-96
2021/07/21 04:55:40;;;;;;;10.95;8.18;;;17.20;99.90;;;;;;4740483;30;20196;-95
2021/07/21 04:58:07;;;;;;;13.98;8.85;;;17.30;99.90;;;;;;4740274;30;20207;-95
2021/07/21 05:00:35;;;;;;;14.25;8.13;;;17.30;99.90;;;;;;4756550;30;20254;-95
2021/07/21 05:03:06;;;;;;;11.90;8.30;;;17.30;99.90;;;;;;4725730;30;20646;-96
2021/07/21 05:05:35;;;;;;;11.98;8.30;;;17.30;99.90;;;;;;4726826;30;20314;-96
2021/07/21 05:08:02;;;;;;;11.35;8.52;;;17.30;99.90;;;;;;4726238;30;20220;-96
2021/07/21 05:10:29;;;;;;;10.73;8.63;;;17.30;99.90;;;;;;4726454;30;20192;-96
2021/07/21 05:13:09;;;;;;;12.65;8.73;;;17.40;99.90;;;;;;4740685;30;20251;-96
2021/07/21 05:15:36;;;;;;;11.68;8.60;;;17.30;99.90;;;;;;4740221;30;20189;-95
2021/07/21 05:18:02;;;;;;;13.48;8.77;;;17.40;99.90;;;;;;4749969;30;20326;-96
2021/07/21 05:20:28;;;;;;;11.45;8.10;;;17.40;99.90;;;;;;4757965;30;20212;-96
2021/07/21 05:22:56;;;;;;;11.60;8.20;;;17.40;99.90;;;;;;4757673;30;20241;-96
2021/07/21 05:25:23;;;;;;;10.27;8.40;;;17.40;99.90;;;;;;4757350;30;20187;-95
2021/07/21 05:27:48;;;;;;;14.32;9.45;;;17.50;99.90;;;;;;4757667;30;20192;-96
2021/07/21 05:30:15;;;;;;;17.52;9.50;;;17.40;99.90;;;;;;4757525;30;20192;-95
2021/07/21 05:32:43;;;;;;;10.93;8.20;;;17.50;99.90;;;;;;4757667;30;20184;-96
2021/07/21 05:35:09;;;;;;;11.23;8.43;;;17.50;99.90;;;;;;4757459;30;20184;-96
2021/07/21 05:37:36;;;;;;;12.85;9.13;;;17.50;99.90;;;;;;4757252;30;20188;-96
2021/07/21 05:40:03;;;;;;;11.75;8.57;;;17.50;99.90;;;;;;4757297;30;20524;-95
2021/07/21 05:42:30;;;;;;;10.93;8.50;;;17.50;99.90;;;;;;4757534;30;20511;-95
2021/07/21 05:44:57;;;;;;;12.05;8.68;;;17.60;99.90;;;;;;4773232;30;20547;-95
2021/07/21 05:47:22;;;;;;;10.63;8.50;;;17.60;99.90;;;;;;4743054;30;20275;-96
2021/07/21 05:49:48;;;;;;;10.65;8.35;;;17.70;99.90;;;;;;4757381;30;20506;-95
2021/07/21 05:52:18;;;;;;;11.73;8.75;;;17.70;99.90;;;;;;4757605;30;20625;-96
2021/07/21 05:54:46;;;;;;;11.55;8.20;;;17.80;99.90;;;;;;4757140;30;20196;-96
2021/07/21 05:57:13;;;;;;;13.63;9.52;;;17.90;99.90;;;;;;4763448;30;20214;-96
2021/07/21 05:59:39;;;;;;;15.38;9.20;;;17.90;99.90;;;;;;4771421;30;20192;-95
2021/07/21 06:05:42;;;;;;;11.88;8.68;;;18.00;99.90;;;;;;4787415;30;20211;-95
2021/07/21 06:08:14;;;;;;;10.98;9.15;;;18.00;99.90;;;;;;4772324;30;20207;-95
2021/07/21 06:10:43;;;;;;;12.18;8.70;;;18.00;99.90;;;;;;4772361;30;20196;-94
2021/07/21 06:13:25;;;;;;;11.55;8.88;;;18.10;99.90;;;;;;4757984;30;20329;-94
2021/07/21 06:15:52;;;;;;;11.15;8.95;;;18.20;99.90;;;;;;4772647;30;20188;-95
2021/07/21 06:18:17;;;;;;;11.88;8.60;;;18.20;99.90;;;;;;4757934;30;20236;-94
2021/07/21 06:20:45;;;;;;;13.50;8.65;;;18.20;99.90;;;;;;4772579;30;20226;-95
2021/07/21 06:23:31;;;;;;;11.60;8.27;;;18.30;99.90;;;;;;4771919;30;20232;-95
2021/07/21 06:26:00;;;;;;;14.50;7.85;;;18.40;99.90;;;;;;4819248;24;20180;-95
2021/07/21 06:28:49;;;;;;;11.15;8.57;;;18.50;99.90;;;;;;4738060;30;20220;-96
2021/07/21 06:31:35;;;;;;;15.82;8.45;;;18.50;99.90;;;;;;4756948;29;20181;-94
2021/07/21 06:34:06;;;;;;;11.75;8.70;;;18.50;99.90;;;;;;4757165;30;20160;-95
2021/07/21 06:36:33;;;;;;;10.90;8.20;;;18.50;99.90;;;;;;4742260;30;20228;-95
2021/07/21 06:39:01;;;;;;;13.85;8.80;;;18.50;99.90;;;;;;4738628;30;20174;-95
2021/07/21 06:41:29;;;;;;;13.63;9.27;;;18.50;99.90;;;;;;4723502;30;20181;-95
2021/07/21 06:44:00;;;;;;;11.18;7.90;;;18.50;99.90;;;;;;4738751;30;20263;-95
2021/07/21 06:46:30;;;;;;;12.82;8.38;;;18.40;99.90;;;;;;4739248;30;20188;-95
2021/07/21 06:48:59;;;;;;;13.35;9.40;;;18.40;99.90;;;;;;4736901;30;20197;-96
2021/07/21 06:51:25;;;;;;;10.73;8.18;;;18.40;99.90;;;;;;4739768;30;20181;-95
2021/07/21 06:54:02;;;;;;;12.70;8.77;;;18.40;99.90;;;;;;4750683;30;20196;-94
2021/07/21 06:56:28;;;;;;;11.02;8.40;;;18.40;99.90;;;;;;4732449;30;20188;-95
2021/07/21 06:58:58;;;;;;;12.38;8.50;;;18.40;99.90;;;;;;4742788;30;20216;-95
2021/07/21 07:01:26;;;;;;;10.15;7.45;;;18.40;99.90;;;;;;4777953;30;20205;-95
2021/07/21 07:03:53;;;;;;;12.55;8.35;;;18.40;99.90;;;;;;4766491;29;20185;-95
2021/07/21 07:06:19;;;;;;;11.20;8.20;;;18.50;99.90;;;;;;4740714;30;20231;-94
2021/07/21 07:08:45;;;;;;;12.63;8.20;;;18.50;99.90;;;;;;4736737;30;20241;-96
2021/07/21 07:11:11;;;;;;;12.38;8.45;;;18.60;99.90;;;;;;4731011;30;20196;-96
2021/07/21 07:13:39;;;;;;;13.85;8.88;;;18.60;99.90;;;;;;4737900;30;20185;-96
2021/07/21 07:16:05;;;;;;;10.93;8.23;;;18.50;99.90;;;;;;4749190;30;20189;-95
2021/07/21 07:18:32;;;;;;;13.15;9.15;;;18.60;99.90;;;;;;4783192;30;20659;-95
2021/07/21 07:20:58;;;;;;;13.05;8.98;;;18.60;99.90;;;;;;4783586;30;20629;-96
2021/07/21 07:23:28;;;;;;;14.30;8.68;;;18.60;99.90;;;;;;4733384;30;20221;-93
2021/07/21 07:25:54;;;;;;;12.40;8.77;;;18.60;99.90;;;;;;4732946;30;20205;-94
2021/07/21 07:28:20;;;;;;;16.80;9.40;;;18.60;99.90;;;;;;4753493;30;20237;-96
2021/07/21 07:30:45;;;;;;;13.70;9.18;;;18.60;99.90;;;;;;4755605;30;20362;-95
2021/07/21 07:33:23;;;;;;;13.50;9.45;;;18.60;99.90;;;;;;4752297;30;20643;-95
2021/07/21 07:35:48;;;;;;;13.98;8.73;;;18.60;99.90;;;;;;4752684;30;20222;-96
2021/07/21 07:38:14;;;;;;;10.52;8.20;;;18.60;99.90;;;;;;4759268;30;20164;-96
2021/07/21 07:40:42;;;;;;;12.60;8.48;;;18.60;99.90;;;;;;4738533;30;20201;-94
2021/07/21 07:43:08;;;;;;;11.80;8.80;;;18.60;99.90;;;;;;4744000;30;20193;-96
2021/07/21 07:45:35;;;;;;;15.77;9.40;;;18.70;99.90;;;;;;4740576;30;20629;-95
2021/07/21 07:48:01;;;;;;;13.43;8.80;;;18.80;99.90;;;;;;4740246;30;20192;-95
2021/07/21 07:50:27;;;;;;;11.88;8.63;;;18.90;99.90;;;;;;4727077;30;20193;-95
2021/07/21 07:52:54;;;;;;;12.43;8.25;;;18.90;99.90;;;;;;4741358;30;20528;-95
2021/07/21 07:55:20;;;;;;;16.30;9.15;;;19.00;99.90;;;;;;4753136;30;20184;-96
2021/07/21 07:57:46;;;;;;;14.10;8.80;;;19.00;99.90;;;;;;4758841;30;20184;-94
2021/07/21 08:00:12;;;;;;;12.32;9.25;;;19.00;99.90;;;;;;4758154;30;20529;-94
2021/07/21 08:02:43;;;;;;;12.57;8.27;;;19.00;99.90;;;;;;4754042;30;20275;-91
2021/07/21 08:05:18;;;;;;;12.57;8.70;;;19.10;99.90;;;;;;4758093;30;20279;-94
2021/07/21 08:07:43;;;;;;;11.43;8.60;;;19.20;99.90;;;;;;4758434;30;20669;-95
2021/07/21 08:10:13;;;;;;;11.27;8.20;;;19.20;99.90;;;;;;4758609;30;20188;-93
2021/07/21 08:12:41;;;;;;;12.00;8.07;;;19.30;99.90;;;;;;4757455;30;20184;-94
2021/07/21 08:15:08;;;;;;;11.95;8.05;;;19.30;99.90;;;;;;4740485;30;20180;-94
2021/07/21 08:17:34;;;;;;;11.23;7.68;;;19.30;99.90;;;;;;4740613;30;20193;-93
2021/07/21 08:20:00;;;;;;;12.70;7.88;;;19.30;99.90;;;;;;4740371;30;20185;-94
2021/07/21 08:22:40;;;;;;;12.15;8.95;;;19.40;99.90;;;;;;4739606;30;20228;-93
2021/07/21 08:25:12;;;;;;;10.73;8.07;;;19.40;99.90;;;;;;4749902;30;20331;-93
2021/07/21 08:27:38;;;;;;;12.18;8.05;;;19.30;99.90;;;;;;4755806;30;20241;-93
2021/07/21 08:30:09;;;;;;;13.73;8.48;;;19.40;99.90;;;;;;4740326;30;20279;-93
2021/07/21 08:32:37;;;;;;;12.98;8.15;;;19.40;99.90;;;;;;4741065;30;20192;-94
2021/07/21 08:35:03;;;;;;;12.00;7.95;;;19.60;99.90;;;;;;4740229;30;20256;-94
2021/07/21 08:37:29;;;;;;;14.50;9.30;;;19.70;99.90;;;;;;4740210;30;20189;-94
2021/07/21 08:39:55;;;;;;;12.20;8.00;;;20.00;99.90;;;;;;4740019;30;20270;-95
2021/07/21 08:42:21;;;;;;;15.30;8.27;;;20.30;99.90;;;;;;4740126;30;20184;-94
2021/07/21 08:44:49;;;;;;;11.43;7.57;;;20.50;99.90;;;;;;4740140;30;20228;-93
2021/07/21 08:47:15;;;;;;;14.13;8.13;;;20.70;99.90;;;;;;4740021;30;20529;-95
2021/07/21 08:49:40;;;;;;;10.50;8.05;;;20.80;99.90;;;;;;4739948;30;20572;-93
2021/07/21 08:52:07;;;;;;;11.82;8.43;;;20.90;99.90;;;;;;4739432;30;20280;-95
2021/07/21 08:54:35;;;;;;;10.90;7.97;;;20.90;99.90;;;;;;4739143;30;20193;-94
2021/07/21 08:57:01;;;;;;;13.40;7.43;;;20.90;99.90;;;;;;4739266;30;20184;-95
2021/07/21 08:59:28;;;;;;;12.55;7.53;;;21.00;99.90;;;;;;4753226;30;20200;-94
2021/07/21 09:01:56;;;;;;;11.85;7.00;;;20.80;99.90;;;;;;4757372;30;20188;-93
2021/07/21 09:04:22;;;;;;;10.05;6.35;;;20.60;99.90;;;;;;4757169;30;20239;-94
2021/07/21 09:06:48;;;;;;;11.38;6.95;;;20.50;99.90;;;;;;4756592;30;20616;-95
2021/07/21 09:09:14;;;;;;;9.40;6.93;;;20.40;99.90;;;;;;4756834;30;20628;-95
2021/07/21 09:11:40;;;;;;;10.23;7.18;;;20.30;99.90;;;;;;4757095;30;20274;-96
2021/07/21 09:14:07;;;;;;;12.20;7.55;;;20.30;99.90;;;;;;4756949;30;20192;-94
2021/07/21 09:16:33;;;;;;;9.52;6.75;;;20.20;99.90;;;;;;4757439;30;20180;-96
2021/07/21 09:18:59;;;;;;;11.30;6.38;;;20.20;99.90;;;;;;4759081;30;20195;-95
2021/07/21 09:21:26;;;;;;;10.20;6.82;;;20.20;99.90;;;;;;4757212;30;20188;-95
2021/07/21 09:24:01;;;;;;;10.68;7.38;;;20.30;99.90;;;;;;4757218;30;20660;-94
2021/07/21 09:26:27;;;;;;;8.85;6.65;;;20.30;99.90;;;;;;4756954;30;20234;-96
2021/07/21 09:28:54;;;;;;;9.63;7.30;;;20.40;99.90;;;;;;4757000;30;20196;-95
2021/07/21 09:31:38;;;;;;;11.55;7.22;;;20.40;99.90;;;;;;4757134;30;20223;-96
2021/07/21 09:34:23;;;;;;;13.07;7.22;;;20.50;99.90;;;;;;4756412;30;20191;-94
2021/07/21 09:37:12;;;;;;;11.73;7.10;;;20.50;99.90;;;;;;4756916;30;20187;-95
2021/07/21 09:39:40;;;;;;;11.68;7.45;;;20.40;99.90;;;;;;4756713;30;20270;-96
2021/07/21 09:42:09;;;;;;;11.00;7.32;;;20.30;99.90;;;;;;4756991;30;20257;-95
2021/07/21 09:44:56;;;;;;;9.90;7.05;;;20.20;99.90;;;;;;4756717;30;20442;-96
2021/07/21 09:47:23;;;;;;;10.55;7.22;;;20.10;99.90;;;;;;4756421;30;20184;-94
2021/07/21 09:50:11;;;;;;;10.93;7.50;;;20.00;99.90;;;;;;4756212;30;20216;-95
2021/07/21 09:52:47;;;;;;;11.15;7.75;;;19.90;99.90;;;;;;4757601;30;20257;-94
2021/07/21 09:55:17;;;;;;;11.52;7.65;;;19.80;99.90;;;;;;4750025;30;20188;-95
2021/07/21 09:58:02;;;;;;;13.18;7.97;;;19.70;99.90;;;;;;4740207;30;20195;-94
2021/07/21 10:00:30;;;;;;;14.35;8.20;;;19.60;99.90;;;;;;4756126;30;20275;-96
2021/07/21 10:03:09;;;;;;;11.73;8.13;;;19.60;99.90;;;;;;4756492;30;20192;-94
2021/07/21 10:05:54;;;;;;;12.15;8.10;;;19.50;99.90;;;;;;4772279;30;20187;-94
2021/07/21 10:08:30;;;;;;;11.77;8.15;;;19.60;99.90;;;;;;4754983;30;20261;-96
2021/07/21 10:10:57;;;;;;;10.85;8.55;;;19.60;99.90;;;;;;4756232;30;20504;-96
2021/07/21 10:13:23;;;;;;;15.57;8.57;;;19.60;99.90;;;;;;4756071;30;20275;-95
2021/07/21 10:15:54;;;;;;;10.65;7.85;;;19.70;99.90;;;;;;4755643;30;20337;-94
2021/07/21 10:18:22;;;;;;;12.43;7.43;;;19.60;99.90;;;;;;4756111;30;20523;-95
2021/07/21 10:20:48;;;;;;;11.55;8.48;;;19.70;99.90;;;;;;4756112;30;20188;-94
2021/07/21 10:23:16;;;;;;;12.15;7.53;;;19.70;99.90;;;;;;4756390;30;20184;-95
2021/07/21 10:25:43;;;;;;;9.60;7.65;;;19.70;99.90;;;;;;4741222;30;20221;-95
2021/07/21 10:28:10;;;;;;;10.13;7.50;;;19.70;99.90;;;;;;4746463;30;20244;-93
2021/07/21 10:30:38;;;;;;;10.65;7.72;;;19.70;99.90;;;;;;4738465;30;20637;-95
2021/07/21 10:33:05;;;;;;;11.95;7.97;;;19.60;99.90;;;;;;4738374;30;20279;-94
2021/07/21 10:35:31;;;;;;;10.15;7.78;;;19.60;99.90;;;;;;4740604;30;20242;-95
2021/07/21 10:37:58;;;;;;;12.93;8.10;;;19.60;99.90;;;;;;4738648;30;20187;-94
2021/07/21 10:40:27;;;;;;;12.90;8.55;;;19.60;99.90;;;;;;4738412;30;20192;-93
2021/07/21 10:42:56;;;;;;;10.45;7.85;;;19.60;99.90;;;;;;4739013;30;20621;-93
2021/07/21 10:45:35;;;;;;;11.63;8.07;;;19.70;99.90;;;;;;4748915;30;20225;-94
2021/07/21 10:48:09;;;;;;;10.93;7.65;;;19.80;99.90;;;;;;4752714;30;20759;-96
2021/07/21 10:51:05;;;;;;;11.20;7.07;;;19.90;99.90;;;;;;4759892;30;20833;-93
2021/07/21 10:54:02;;;;;;;10.63;6.68;;;20.00;99.90;;;;;;4759970;30;20525;-93
2021/07/21 10:59:30;;;;;;;11.10;7.28;;;20.00;99.90;;;;;;4774969;30;20230;-93
2021/07/21 11:02:00;;;;;;;10.70;7.85;;;20.00;99.90;;;;;;4759606;30;20287;-94
2021/07/21 11:04:46;;;;;;;10.85;7.50;;;20.10;99.90;;;;;;4759837;30;20243;-93
2021/07/21 11:07:14;;;;;;;12.90;7.90;;;20.10;99.90;;;;;;4741694;30;20221;-94
2021/07/21 11:09:48;;;;;;;14.40;7.85;;;20.20;99.90;;;;;;4741326;30;20199;-94
2021/07/21 11:12:31;;;;;;;9.77;7.55;;;20.20;99.90;;;;;;4741735;30;20181;-94
2021/07/21 11:15:04;;;;;;;10.57;7.43;;;20.20;99.90;;;;;;4741486;30;20638;-94
2021/07/21 11:17:29;;;;;;;11.48;7.75;;;20.30;99.90;;;;;;4741700;30;20189;-93
2021/07/21 11:19:56;;;;;;;10.18;7.22;;;20.30;99.90;;;;;;4741475;30;20608;-93
2021/07/21 11:22:22;;;;;;;10.13;7.78;;;20.30;99.90;;;;;;4741627;30;20184;-94
2021/07/21 11:25:10;;;;;;;12.73;7.88;;;20.30;99.90;;;;;;4741313;30;20657;-93
2021/07/21 11:28:00;;;;;;;10.45;7.53;;;20.40;99.90;;;;;;4741586;30;20731;-93
2021/07/21 11:30:55;;;;;;;9.82;7.18;;;20.50;99.90;;;;;;4758652;30;20188;-94
2021/07/21 11:34:03;;;;;;;11.93;7.78;;;20.50;99.90;;;;;;4759269;30;20628;-94
2021/07/21 11:36:46;;;;;;;9.90;7.18;;;20.60;99.90;;;;;;4759165;30;20199;-93
2021/07/21 11:39:31;;;;;;;12.70;6.93;;;20.60;99.90;;;;;;4758978;30;20519;-94
2021/07/21 11:41:58;;;;;;;9.25;6.57;;;20.60;99.90;;;;;;4758860;30;20211;-94
2021/07/21 11:44:24;;;;;;;10.98;8.05;;;20.70;99.90;;;;;;4758778;30;20273;-94
2021/07/21 11:46:50;;;;;;;10.57;7.35;;;20.70;99.90;;;;;;4758589;30;20180;-93
2021/07/21 11:49:23;;;;;;;9.32;6.93;;;20.80;99.90;;;;;;4758670;30;20217;-93
2021/07/21 11:51:52;;;;;;;11.10;7.47;;;20.80;99.90;;;;;;4758589;30;20256;-94
2021/07/21 11:54:32;;;;;;;11.38;7.25;;;20.80;99.90;;;;;;4758699;30;20184;-94
2021/07/21 11:56:59;;;;;;;9.82;6.88;;;20.90;99.90;;;;;;4758662;30;20187;-94
2021/07/21 11:59:33;;;;;;;9.93;7.07;;;20.90;99.90;;;;;;4758640;30;20237;-94
2021/07/21 12:02:06;;;;;;;10.88;6.75;;;20.90;99.90;;;;;;4759398;30;20204;-95
2021/07/21 12:04:32;;;;;;;9.65;6.85;;;21.00;99.90;;;;;;4759345;30;20212;-96
2021/07/21 12:06:59;;;;;;;9.55;7.35;;;21.00;99.90;;;;;;4759412;30;20188;-96
2021/07/21 12:09:28;;;;;;;9.63;7.32;;;21.00;99.90;;;;;;4759332;30;20273;-95
2021/07/21 12:12:02;;;;;;;9.48;6.85;;;21.00;99.90;;;;;;4759683;30;20224;-95
2021/07/21 12:14:29;;;;;;;8.63;6.72;;;21.00;99.90;;;;;;4759309;30;20196;-95
2021/07/21 12:17:19;;;;;;;10.02;7.10;;;20.90;99.90;;;;;;4759626;30;20212;-95
2021/07/21 12:20:07;;;;;;;9.32;6.78;;;20.90;99.90;;;;;;4771987;30;20200;-96
2021/07/21 12:22:39;;;;;;;9.43;7.18;;;20.90;99.90;;;;;;4775111;30;20184;-96
2021/07/21 12:25:50;;;;;;;10.20;7.28;;;20.80;99.90;;;;;;4760533;30;20213;-96
2021/07/21 12:28:15;;;;;;;9.15;6.90;;;20.90;99.90;;;;;;4755704;30;20275;-95
2021/07/21 12:30:46;;;;;;;9.75;6.75;;;20.90;99.90;;;;;;4738826;30;20213;-96
2021/07/21 12:33:20;;;;;;;11.57;6.95;;;20.90;99.90;;;;;;4738907;30;20309;-94
2021/07/21 12:36:12;;;;;;;9.75;7.63;;;20.90;99.90;;;;;;4759980;30;20185;-94
2021/07/21 12:39:07;;;;;;;8.38;7.10;;;21.10;99.90;;;;;;4767982;30;20191;-96
2021/07/21 12:41:34;;;;;;;8.93;7.28;;;21.40;99.90;;;;;;4771887;30;20180;-95
2021/07/21 12:44:12;;;;;;;11.75;7.80;;;21.60;99.90;;;;;;4770308;30;20249;-96
2021/07/21 12:46:46;;;;;;;10.63;7.75;;;21.80;99.90;;;;;;4742039;30;20193;-96
2021/07/21 12:49:13;;;;;;;8.77;7.43;;;21.90;99.90;;;;;;4741877;30;20189;-95
2021/07/21 12:51:39;;;;;;;12.23;8.10;;;22.00;99.90;;;;;;4744909;30;20645;-95
2021/07/21 12:54:06;;;;;;;11.55;7.13;;;22.00;99.90;;;;;;4756877;30;20227;-95
2021/07/21 12:56:32;;;;;;;10.15;7.80;;;22.00;99.90;;;;;;4747810;30;20189;-96
2021/07/21 12:59:06;;;;;;;9.98;7.43;;;22.10;99.90;;;;;;4746871;30;20208;-95
2021/07/21 13:01:31;;;;;;;9.05;7.60;;;22.20;99.90;;;;;;4736093;30;20181;-94
2021/07/21 13:03:58;;;;;;;9.13;7.40;;;22.30;99.90;;;;;;4736733;30;20554;-96
2021/07/21 13:06:36;;;;;;;8.38;7.18;;;22.40;99.90;;;;;;4737387;30;20276;-94
2021/07/21 13:09:05;;;;;;;9.43;7.40;;;22.60;99.90;;;;;;4736326;30;20198;-95
2021/07/21 13:11:31;;;;;;;9.70;7.43;;;22.70;99.90;;;;;;4736787;30;20315;-93
2021/07/21 13:14:00;;;;;;;9.75;7.53;;;22.60;99.90;;;;;;4737049;30;20253;-96
2021/07/21 13:16:34;;;;;;;9.35;7.57;;;22.50;99.90;;;;;;4736467;30;20644;-96
2021/07/21 13:19:10;;;;;;;9.60;7.43;;;22.40;99.90;;;;;;4737267;30;20279;-96
2021/07/21 13:21:46;;;;;;;11.73;8.00;;;22.00;99.90;;;;;;4736740;30;20189;-96
2021/07/21 13:24:22;;;;;;;13.05;7.85;;;21.80;99.90;;;;;;4738416;30;20223;-96